Time;durP1;ratioP1;P1;durP2;ratioP2;P2;SDS_P1;SDS_P2;PMS_P1;PMS_P2;Temp;Humidity;BMP_temperature;BMP_pressure;BME280_temperature;BME280_humidity;BME280_pressure;Samples;Min_cycle;Max_cycle;Signal;HPM_P1;HPM_P2
2023/11/12 00:01:59;;;;;;;1.92;1.50;;;;;;;5.11;67.23;99060.66;10494930;28;20047;-63
2023/11/12 00:07:02;;;;;;;4.55;1.70;;;;;;;5.20;66.80;99060.19;10514146;28;20040;-64
2023/11/12 00:12:05;;;;;;;2.95;1.88;;;;;;;5.14;66.82;99050.16;10518106;28;20050;-63
2023/11/12 00:17:09;;;;;;;3.42;1.67;;;;;;;5.10;66.89;99051.22;10518848;28;20146;-63
2023/11/12 00:22:12;;;;;;;2.00;1.40;;;;;;;5.13;66.73;99056.25;10518600;28;20056;-63
2023/11/12 00:27:14;;;;;;;3.08;1.98;;;;;;;5.08;66.71;99051.31;10517629;28;20388;-63
2023/11/12 00:32:16;;;;;;;3.10;2.00;;;;;;;5.06;66.81;99042.78;10498798;28;20055;-63
2023/11/12 00:37:18;;;;;;;2.55;1.75;;;;;;;5.05;66.73;99041.09;10503351;28;20332;-63
2023/11/12 00:42:20;;;;;;;2.97;1.63;;;;;;;5.06;66.88;99041.94;10508804;28;20048;-64
2023/11/12 00:47:22;;;;;;;2.92;1.67;;;;;;;5.11;66.64;99045.13;10491644;28;20036;-63
2023/11/12 00:52:25;;;;;;;2.88;1.77;;;;;;;5.08;66.46;99029.75;10504443;28;20040;-64
2023/11/12 00:57:27;;;;;;;2.38;1.45;;;;;;;4.95;66.53;99018.31;10504185;28;20177;-64
2023/11/12 01:02:29;;;;;;;3.05;1.65;;;;;;;4.78;66.57;99029.53;10488571;28;20052;-64
2023/11/12 01:07:32;;;;;;;2.70;1.75;;;;;;;4.48;66.87;99026.72;10505982;28;20051;-64
2023/11/12 01:12:37;;;;;;;3.78;1.90;;;;;;;4.29;67.26;99027.72;10507487;28;20502;-63
2023/11/12 01:17:39;;;;;;;4.07;1.88;;;;;;;4.18;67.14;99028.22;10486488;28;20054;-64
2023/11/12 01:22:42;;;;;;;2.65;1.80;;;;;;;4.03;67.16;99021.19;10503325;28;20044;-64
2023/11/12 01:27:44;;;;;;;3.95;2.13;;;;;;;3.99;67.57;99022.25;10508705;28;20044;-64
2023/11/12 01:32:52;;;;;;;4.68;2.05;;;;;;;3.98;67.68;99019.75;10487713;28;20059;-63
2023/11/12 01:37:54;;;;;;;5.25;2.10;;;;;;;4.05;67.96;99010.78;10508549;28;20492;-63
2023/11/12 01:42:56;;;;;;;4.10;2.20;;;;;;;4.16;68.04;99005.91;10470299;28;20048;-63
2023/11/12 01:47:59;;;;;;;3.90;1.88;;;;;;;4.39;67.78;98998.69;10487827;28;20047;-63
2023/11/12 01:53:01;;;;;;;3.33;1.77;;;;;;;4.58;67.70;99001.22;10496124;28;20048;-64
2023/11/12 01:58:04;;;;;;;5.93;1.83;;;;;;;4.75;67.61;98998.63;10513507;28;20048;-64
2023/11/12 02:03:09;;;;;;;3.15;2.00;;;;;;;4.71;66.87;99004.88;10496385;28;20056;-63
2023/11/12 02:08:12;;;;;;;4.15;2.10;;;;;;;4.48;67.03;99008.63;10480243;28;20058;-63
2023/11/12 02:13:16;;;;;;;3.92;1.80;;;;;;;4.41;67.22;99003.81;10479276;28;20043;-63
2023/11/12 02:18:19;;;;;;;3.60;2.00;;;;;;;4.32;67.10;99001.69;10496320;28;20067;-64
2023/11/12 02:23:21;;;;;;;4.25;1.90;;;;;;;4.23;67.33;99005.53;10495868;28;20048;-63
2023/11/12 02:28:23;;;;;;;10.57;2.78;;;;;;;4.18;67.21;99009.28;10512349;28;20393;-63
2023/11/12 02:33:27;;;;;;;2.80;1.92;;;;;;;4.23;67.64;99021.06;10514006;28;20134;-64
2023/11/12 02:38:31;;;;;;;5.25;2.03;;;;;;;4.44;67.56;99014.00;10480336;28;20047;-63
2023/11/12 02:43:34;;;;;;;4.03;2.38;;;;;;;4.59;67.04;99016.69;10489723;28;20044;-63
2023/11/12 02:49:01;;;;;;;3.10;1.90;;;;;;;4.41;67.63;99017.56;10513241;28;20412;-63
2023/11/12 02:54:03;;;;;;;3.15;1.88;;;;;;;4.37;67.67;99016.06;10511155;28;20511;-63
2023/11/12 02:59:05;;;;;;;4.25;2.20;;;;;;;4.56;67.25;99014.25;10510064;28;20055;-63
2023/11/12 03:04:07;;;;;;;5.53;2.78;;;;;;;4.53;66.80;99011.81;10492334;28;20134;-64
2023/11/12 03:09:09;;;;;;;4.07;2.55;;;;;;;4.53;66.78;99006.66;10512323;28;20082;-63
2023/11/12 03:14:12;;;;;;;5.70;2.67;;;;;;;4.57;66.83;99008.16;10490190;28;20112;-63
2023/11/12 03:19:14;;;;;;;5.30;2.80;;;;;;;4.67;66.61;99004.19;10510431;28;20564;-63
2023/11/12 03:24:16;;;;;;;5.82;3.40;;;;;;;4.51;66.79;98998.13;10493370;28;20190;-63
2023/11/12 03:29:22;;;;;;;5.57;3.53;;;;;;;4.53;67.11;98998.03;10494974;28;20044;-63
2023/11/12 03:34:26;;;;;;;8.77;3.42;;;;;;;4.70;66.63;98990.22;10494025;28;20040;-63
2023/11/12 03:39:28;;;;;;;3.80;2.65;;;;;;;4.57;66.71;98986.59;10490874;28;20040;-63
2023/11/12 03:44:30;;;;;;;5.60;3.00;;;;;;;4.41;66.93;98981.34;10493918;28;20055;-63
2023/11/12 03:49:32;;;;;;;4.20;2.50;;;;;;;4.38;67.01;98986.69;10508541;28;20877;-62
2023/11/12 03:54:36;;;;;;;5.57;3.03;;;;;;;4.33;66.88;98975.72;10511241;28;20088;-63
2023/11/12 03:59:38;;;;;;;4.95;2.85;;;;;;;4.21;66.50;98976.31;10509073;28;20437;-63
2023/11/12 04:04:40;;;;;;;3.72;2.17;;;;;;;4.08;66.76;98975.25;10488733;28;21976;-63
2023/11/12 04:09:42;;;;;;;3.00;1.90;;;;;;;3.80;67.06;98973.09;10509594;28;20476;-63
2023/11/12 04:14:44;;;;;;;5.07;2.30;;;;;;;3.65;66.95;98960.06;10509681;28;20048;-63
2023/11/12 04:19:46;;;;;;;3.85;2.15;;;;;;;3.55;67.36;98966.59;10510000;28;20050;-63
2023/11/12 04:24:51;;;;;;;3.63;2.17;;;;;;;3.50;67.20;98968.53;10491071;28;20044;-63
2023/11/12 04:29:55;;;;;;;4.53;2.40;;;;;;;3.13;67.50;98974.53;10490872;28;20067;-63
2023/11/12 04:34:57;;;;;;;4.60;2.30;;;;;;;2.86;67.89;98970.59;10491714;28;20043;-63
2023/11/12 04:40:00;;;;;;;4.53;2.20;;;;;;;2.79;68.24;98966.59;10492136;28;20887;-62
2023/11/12 04:45:02;;;;;;;4.30;2.28;;;;;;;2.85;68.21;98962.03;10490974;28;20051;-62
2023/11/12 04:50:06;;;;;;;4.25;2.22;;;;;;;3.09;68.16;98962.66;10492589;28;20403;-63
2023/11/12 04:55:08;;;;;;;4.25;2.45;;;;;;;3.23;67.90;98959.47;10516610;28;20552;-63
2023/11/12 05:00:11;;;;;;;4.03;2.15;;;;;;;3.27;67.79;98971.34;10517189;28;20044;-63
2023/11/12 05:05:16;;;;;;;5.63;2.65;;;;;;;3.36;67.58;98965.75;10515701;28;20044;-63
2023/11/12 05:10:18;;;;;;;10.52;2.60;;;;;;;3.48;67.75;98972.94;10517240;28;20071;-64
2023/11/12 05:15:21;;;;;;;8.35;2.75;;;;;;;3.51;67.42;98960.72;10516009;28;20131;-64
2023/11/12 05:20:24;;;;;;;37.13;2.92;;;;;;;3.61;67.33;98967.16;10515264;28;20040;-63
2023/11/12 05:25:27;;;;;;;39.80;3.08;;;;;;;3.60;67.36;98964.63;10515659;28;20044;-62
2023/11/12 05:30:29;;;;;;;5.18;1.90;;;;;;;3.65;67.11;98966.09;10516783;28;20052;-63
2023/11/12 05:35:31;;;;;;;9.25;2.90;;;;;;;3.74;67.36;98967.41;10514495;28;20143;-63
2023/11/12 05:40:33;;;;;;;8.07;2.38;;;;;;;3.85;67.25;98971.19;10513984;28;20225;-63
2023/11/12 05:45:35;;;;;;;5.78;2.20;;;;;;;3.95;67.43;98974.16;10513289;28;20109;-63
2023/11/12 05:50:38;;;;;;;3.30;2.20;;;;;;;4.02;67.36;98977.28;10516834;28;20047;-62
2023/11/12 05:55:40;;;;;;;10.05;2.92;;;;;;;3.97;67.04;98985.28;10516131;28;20044;-62
2023/11/12 06:00:42;;;;;;;3.75;2.15;;;;;;;4.11;67.17;98989.81;10516720;28;20062;-63
2023/11/12 06:05:45;;;;;;;4.85;2.50;;;;;;;4.24;67.14;98983.09;10512323;28;20385;-62
2023/11/12 06:10:48;;;;;;;3.95;2.30;;;;;;;4.32;66.67;98980.97;10495034;28;20052;-62
2023/11/12 06:15:50;;;;;;;2.97;1.80;;;;;;;4.45;66.67;98977.72;10509355;28;20060;-62
2023/11/12 06:20:52;;;;;;;4.95;2.25;;;;;;;4.41;66.42;98980.53;10507884;28;20518;-63
2023/11/12 06:25:54;;;;;;;3.08;2.00;;;;;;;4.26;66.47;98984.69;10469853;28;20393;-63
2023/11/12 06:30:57;;;;;;;3.63;2.00;;;;;;;4.26;66.76;98991.63;10511247;28;20123;-63
2023/11/12 06:35:59;;;;;;;6.25;2.28;;;;;;;4.45;66.80;98995.00;10514709;28;20044;-63
2023/11/12 06:41:01;;;;;;;4.35;2.20;;;;;;;4.36;66.42;99003.19;10494049;28;20070;-63
2023/11/12 06:46:07;;;;;;;4.22;2.50;;;;;;;4.32;66.90;99025.81;10512598;28;20629;-63
2023/11/12 06:51:19;;;;;;;4.75;2.42;;;;;;;4.51;66.69;99028.34;10496798;28;20529;-63
2023/11/12 06:56:23;;;;;;;11.73;2.70;;;;;;;4.52;66.52;99041.19;10494529;28;20040;-63
2023/11/12 07:01:25;;;;;;;5.10;2.50;;;;;;;4.60;66.46;99052.03;10490804;28;20047;-63
2023/11/12 07:06:28;;;;;;;5.50;2.63;;;;;;;4.78;66.34;99049.44;10510494;28;20048;-63
2023/11/12 07:11:30;;;;;;;9.63;2.28;;;;;;;4.79;66.31;99054.53;10514259;28;20109;-63
2023/11/12 07:16:32;;;;;;;5.88;3.25;;;;;;;4.83;66.32;99066.41;10512580;28;20458;-63
2023/11/12 07:21:34;;;;;;;7.03;3.05;;;;;;;4.96;65.94;99067.50;10513998;28;20089;-63
2023/11/12 07:26:36;;;;;;;3.97;2.50;;;;;;;4.87;65.85;99075.72;10513784;28;21239;-63
2023/11/12 07:31:38;;;;;;;4.97;2.35;;;;;;;4.97;66.06;99081.25;10501329;28;20044;-63
2023/11/12 07:36:40;;;;;;;4.20;2.35;;;;;;;5.05;65.95;99087.75;10502299;28;20052;-62
2023/11/12 07:41:42;;;;;;;10.60;2.95;;;;;;;4.98;66.13;99096.75;10501141;28;20048;-62
2023/11/12 07:46:45;;;;;;;4.65;2.33;;;;;;;5.05;66.15;99102.44;10508203;28;20087;-62
2023/11/12 07:51:49;;;;;;;4.13;3.00;;;;;;;5.10;65.99;99106.50;10506481;28;20035;-62
2023/11/12 07:56:51;;;;;;;3.88;2.55;;;;;;;5.18;65.86;99103.50;10504510;28;20131;-62
2023/11/12 08:01:53;;;;;;;4.15;2.60;;;;;;;5.06;66.10;99098.94;10505575;28;20471;-62
2023/11/12 08:06:56;;;;;;;7.00;3.10;;;;;;;5.04;66.34;99101.63;10505575;28;20044;-62
2023/11/12 08:11:58;;;;;;;6.15;2.60;;;;;;;5.11;66.47;99108.16;10506893;28;20645;-63
2023/11/12 08:17:00;;;;;;;4.45;2.50;;;;;;;5.19;66.44;99112.94;10501183;28;20473;-62
2023/11/12 08:22:02;;;;;;;5.30;2.95;;;;;;;5.14;66.37;99105.44;10502681;28;20044;-62
2023/11/12 08:27:06;;;;;;;5.93;3.17;;;;;;;4.99;66.61;99116.56;10508067;28;20382;-62
2023/11/12 08:32:09;;;;;;;7.45;2.83;;;;;;;4.95;66.87;99121.94;10513389;28;20089;-61
2023/11/12 08:37:11;;;;;;;4.00;2.30;;;;;;;5.01;66.73;99125.09;10512149;28;20059;-62
2023/11/12 08:42:13;;;;;;;5.10;2.75;;;;;;;5.08;67.10;99118.69;10513667;28;20039;-62
2023/11/12 08:47:15;;;;;;;4.43;2.67;;;;;;;5.07;66.66;99117.00;10513339;28;20079;-62
2023/11/12 08:52:17;;;;;;;4.47;2.33;;;;;;;5.05;67.16;99129.19;10513015;28;20622;-62
2023/11/12 08:57:20;;;;;;;4.07;2.33;;;;;;;5.06;67.26;99128.31;10511858;28;20048;-62
2023/11/12 09:02:22;;;;;;;4.28;2.88;;;;;;;5.10;67.34;99141.94;10512672;28;20490;-62
2023/11/12 09:07:24;;;;;;;3.88;2.10;;;;;;;5.37;67.05;99136.19;10510827;28;20412;-62
2023/11/12 09:12:26;;;;;;;3.28;1.77;;;;;;;5.64;66.56;99133.91;10511731;28;20131;-61
2023/11/12 09:17:28;;;;;;;3.30;1.90;;;;;;;5.71;66.27;99129.25;10492712;28;20113;-63
2023/11/12 09:22:31;;;;;;;3.42;2.03;;;;;;;5.85;66.16;99132.81;10496902;28;20078;-62
2023/11/12 09:27:33;;;;;;;4.03;2.15;;;;;;;5.87;65.77;99138.75;10493871;28;20048;-63
2023/11/12 09:32:38;;;;;;;4.32;2.30;;;;;;;5.92;66.00;99128.13;10511047;28;20145;-63
2023/11/12 09:37:41;;;;;;;4.03;2.10;;;;;;;6.12;65.85;99125.28;10507261;28;20126;-63
2023/11/12 09:42:52;;;;;;;4.20;2.17;;;;;;;6.52;65.21;99119.59;10493990;28;20044;-63
2023/11/12 09:47:53;;;;;;;3.33;2.10;;;;;;;6.81;64.51;99113.59;10511048;28;20056;-63
2023/11/12 09:52:56;;;;;;;3.22;1.67;;;;;;;6.86;64.59;99115.91;10510920;28;20044;-63
2023/11/12 09:58:01;;;;;;;6.13;2.40;;;;;;;6.83;64.38;99122.16;10477134;28;21011;-63
2023/11/12 10:03:07;;;;;;;3.60;2.45;;;;;;;7.28;63.76;99120.38;10507129;28;20173;-63
2023/11/12 10:08:11;;;;;;;3.33;1.92;;;;;;;7.38;63.68;99111.13;10511353;28;20043;-63
2023/11/12 10:13:13;;;;;;;4.15;2.17;;;;;;;7.58;62.99;99111.59;10509222;28;20048;-65
2023/11/12 10:18:26;;;;;;;5.60;2.15;;;;;;;7.61;62.72;99102.78;10508306;28;20043;-62
2023/11/12 10:23:28;;;;;;;4.22;2.10;;;;;;;7.44;62.97;99102.94;10491293;28;20044;-63
2023/11/12 10:28:34;;;;;;;4.10;1.90;;;;;;;7.31;63.52;99102.81;10510455;28;20059;-63
2023/11/12 10:33:37;;;;;;;3.88;2.15;;;;;;;7.40;63.44;99096.25;10507884;28;20060;-68
2023/11/12 10:38:47;;;;;;;3.20;1.90;;;;;;;7.23;63.53;99104.22;10471416;28;20079;-68
2023/11/12 10:43:58;;;;;;;4.53;1.95;;;;;;;7.32;63.49;99098.47;10491309;28;20040;-68
2023/11/12 10:49:02;;;;;;;5.47;2.08;;;;;;;7.27;63.50;99098.75;10488643;28;20491;-69
2023/11/12 10:54:06;;;;;;;3.83;1.70;;;;;;;7.26;63.51;99091.88;10508315;28;20040;-69
2023/11/12 10:59:09;;;;;;;3.60;1.83;;;;;;;7.23;63.76;99086.84;10487591;28;20032;-69
2023/11/12 11:04:12;;;;;;;5.25;1.95;;;;;;;7.21;63.72;99080.91;10508758;28;20044;-69
2023/11/12 11:09:14;;;;;;;3.58;1.85;;;;;;;7.33;63.64;99082.75;10508104;28;20044;-69
2023/11/12 11:14:24;;;;;;;4.93;2.20;;;;;;;7.22;63.49;99081.75;10507862;28;20064;-69
2023/11/12 11:19:43;;;;;;;4.25;2.20;;;;;;;7.29;63.26;99078.69;10509988;28;20048;-68
2023/11/12 11:24:45;;;;;;;4.40;2.10;;;;;;;7.55;63.10;99080.53;10506650;28;20052;-68
2023/11/12 11:30:14;;;;;;;4.65;2.25;;;;;;;7.73;62.81;99079.41;10506589;28;20036;-68
2023/11/12 11:35:21;;;;;;;6.30;2.15;;;;;;;7.69;62.86;99083.13;10487591;28;20519;-68
2023/11/12 11:40:32;;;;;;;2.55;1.48;;;;;;;7.80;62.45;99078.13;10506230;28;20056;-68
2023/11/12 11:46:09;;;;;;;3.88;1.80;;;;;;;8.07;61.94;99085.13;10505343;28;20145;-68
2023/11/12 11:51:27;;;;;;;3.70;1.80;;;;;;;8.30;61.69;99081.94;10504872;28;20040;-68
2023/11/12 11:56:30;;;;;;;2.72;1.73;;;;;;;8.22;61.43;99086.81;10504619;28;20173;-68
2023/11/12 12:01:42;;;;;;;5.03;2.10;;;;;;;8.20;61.59;99084.28;10505647;28;20044;-67
2023/11/12 12:06:46;;;;;;;2.53;1.50;;;;;;;8.17;61.57;99086.25;10510359;28;20044;-68
2023/11/12 12:11:51;;;;;;;3.13;1.67;;;;;;;8.11;61.68;99097.91;10500497;28;20044;-67
2023/11/12 12:16:54;;;;;;;4.60;1.83;;;;;;;8.17;61.67;99089.69;10500527;28;20698;-67
2023/11/12 12:21:57;;;;;;;4.28;2.20;;;;;;;8.13;61.42;99089.97;10503246;28;20036;-69
2023/11/12 12:27:04;;;;;;;4.35;2.30;;;;;;;8.26;61.41;99090.91;10502596;28;20085;-69
2023/11/12 12:32:13;;;;;;;5.07;1.90;;;;;;;8.48;60.42;99093.78;10480043;28;20125;-69
2023/11/12 12:37:25;;;;;;;4.68;2.10;;;;;;;8.60;60.17;99090.41;10492902;28;20044;-69
2023/11/12 12:42:28;;;;;;;4.07;1.95;;;;;;;8.58;61.01;99100.94;10498908;28;20051;-69
2023/11/12 12:47:36;;;;;;;3.20;1.90;;;;;;;8.62;60.50;99088.53;10504767;28;20515;-67
2023/11/12 12:52:42;;;;;;;4.68;2.03;;;;;;;8.39;61.21;99086.56;10497453;28;20519;-69
2023/11/12 12:57:48;;;;;;;3.08;1.70;;;;;;;8.55;61.06;99089.84;10503515;28;20036;-68
2023/11/12 13:02:51;;;;;;;5.20;2.00;;;;;;;8.47;60.77;99084.28;10500257;28;20079;-69
2023/11/12 13:07:54;;;;;;;4.45;2.45;;;;;;;8.52;61.05;99071.81;10514631;28;20105;-69
2023/11/12 13:12:56;;;;;;;3.53;1.95;;;;;;;8.54;61.16;99077.75;10507710;28;20156;-69
2023/11/12 13:17:58;;;;;;;4.28;1.80;;;;;;;8.60;60.88;99069.53;10511293;28;20043;-69
2023/11/12 13:23:01;;;;;;;3.30;1.70;;;;;;;8.63;60.63;99075.38;10511352;28;20128;-68
2023/11/12 13:28:07;;;;;;;7.03;2.13;;;;;;;8.49;60.33;99058.97;10511471;28;20521;-68
2023/11/12 13:33:09;;;;;;;6.40;2.47;;;;;;;8.34;60.63;99054.78;10510258;28;20044;-68
2023/11/12 13:38:12;;;;;;;3.97;1.75;;;;;;;8.41;60.89;99045.59;10490708;28;20044;-68
2023/11/12 13:43:14;;;;;;;5.72;2.17;;;;;;;8.42;60.98;99049.91;10491414;28;20044;-68
2023/11/12 13:48:16;;;;;;;3.38;1.90;;;;;;;8.52;60.97;99061.41;10491988;28;20115;-68
2023/11/12 13:53:18;;;;;;;3.05;1.70;;;;;;;8.45;60.94;99070.53;10477440;28;20051;-68
2023/11/12 13:58:22;;;;;;;3.47;1.70;;;;;;;8.34;60.87;99073.00;10492535;28;20036;-68
2023/11/12 14:03:24;;;;;;;2.95;1.60;;;;;;;8.37;61.08;99075.41;10504618;28;20066;-68
2023/11/12 14:08:27;;;;;;;4.28;1.60;;;;;;;8.57;60.93;99086.22;10509615;28;20075;-68
2023/11/12 14:13:31;;;;;;;2.88;1.60;;;;;;;8.47;60.43;99076.47;10508821;28;20044;-69
2023/11/12 14:18:34;;;;;;;2.97;2.10;;;;;;;8.32;60.70;99077.47;10506529;28;20506;-68
2023/11/12 14:23:39;;;;;;;2.53;1.50;;;;;;;8.26;60.92;99075.25;10509627;28;20178;-68
2023/11/12 14:28:42;;;;;;;5.88;2.38;;;;;;;8.18;61.08;99085.34;10508138;28;20204;-68
2023/11/12 14:33:44;;;;;;;3.75;1.80;;;;;;;8.01;61.42;99079.41;10511085;28;20036;-68
2023/11/12 14:38:46;;;;;;;3.28;1.80;;;;;;;7.90;61.59;99076.59;10509131;28;20455;-68
2023/11/12 14:43:48;;;;;;;5.72;2.08;;;;;;;7.77;61.89;99085.28;10507596;28;20047;-68
2023/11/12 14:48:50;;;;;;;4.70;1.95;;;;;;;7.68;62.23;99080.63;10508540;28;20119;-68
2023/11/12 14:53:54;;;;;;;4.53;2.00;;;;;;;7.65;62.47;99093.84;10486836;28;20049;-68
2023/11/12 14:59:06;;;;;;;2.65;1.58;;;;;;;7.62;62.52;99099.22;10506887;28;20083;-68
2023/11/12 15:04:09;;;;;;;4.03;1.90;;;;;;;7.52;62.71;99106.75;10507688;28;20044;-68
2023/11/12 15:09:11;;;;;;;3.08;1.88;;;;;;;7.43;62.60;99099.50;10503515;28;20040;-68
2023/11/12 15:14:13;;;;;;;4.68;2.35;;;;;;;7.26;62.88;99096.22;10506917;28;20129;-67
2023/11/12 15:19:15;;;;;;;3.17;1.75;;;;;;;7.17;63.24;99102.81;10505131;28;20048;-68
2023/11/12 15:24:17;;;;;;;4.22;2.38;;;;;;;7.17;63.24;99093.25;10474141;28;20258;-67
2023/11/12 15:29:23;;;;;;;5.95;2.20;;;;;;;7.16;63.20;99093.34;10488795;28;20044;-67
2023/11/12 15:34:25;;;;;;;4.95;2.20;;;;;;;7.06;63.42;99085.25;10507836;28;20052;-67
2023/11/12 15:39:27;;;;;;;3.47;2.05;;;;;;;6.93;63.74;99096.44;10508574;28;20047;-67
2023/11/12 15:44:30;;;;;;;5.15;2.53;;;;;;;6.86;63.81;99092.53;10486087;28;20061;-67
2023/11/12 15:49:32;;;;;;;10.70;2.70;;;;;;;6.79;64.13;99107.66;10507078;28;20044;-67
2023/11/12 15:54:34;;;;;;;5.97;2.40;;;;;;;6.85;63.86;99111.66;10506320;28;20052;-67
2023/11/12 15:59:37;;;;;;;5.00;2.78;;;;;;;6.91;63.96;99116.50;10486683;28;20048;-68
2023/11/12 16:04:39;;;;;;;3.13;2.08;;;;;;;6.98;64.02;99133.41;10487904;28;20060;-67
2023/11/12 16:09:41;;;;;;;6.72;3.13;;;;;;;6.99;63.96;99127.28;10489823;28;20040;-68
2023/11/12 16:14:43;;;;;;;7.47;3.15;;;;;;;7.02;63.96;99145.31;10505930;28;20060;-62
2023/11/12 16:19:48;;;;;;;8.20;3.95;;;;;;;7.01;63.99;99159.22;10506073;28;20040;-63
2023/11/12 16:24:51;;;;;;;8.07;4.53;;;;;;;6.98;64.00;99154.19;10501934;28;20185;-62
2023/11/12 16:29:54;;;;;;;7.82;3.90;;;;;;;6.90;64.30;99164.19;10486527;28;20636;-62
2023/11/12 16:34:56;;;;;;;19.25;6.85;;;;;;;6.92;64.29;99167.53;10506105;28;20397;-63
2023/11/12 16:40:00;;;;;;;24.70;7.28;;;;;;;6.88;64.34;99169.47;10504664;28;20188;-62
2023/11/12 16:45:03;;;;;;;18.95;4.70;;;;;;;6.83;64.51;99168.94;10484053;28;20147;-61
2023/11/12 16:50:09;;;;;;;32.30;6.95;;;;;;;6.75;64.67;99165.91;10513570;28;20488;-62
2023/11/12 16:55:12;;;;;;;13.32;3.70;;;;;;;6.81;64.63;99169.94;10511646;28;20146;-61
2023/11/12 17:00:21;;;;;;;15.50;4.20;;;;;;;6.85;64.63;99169.69;10512531;28;20060;-61
2023/11/12 17:05:24;;;;;;;11.10;3.95;;;;;;;6.87;64.42;99174.78;10478657;28;20059;-61
2023/11/12 17:10:26;;;;;;;7.85;3.78;;;;;;;6.65;64.62;99169.13;10511559;28;20531;-61
2023/11/12 17:15:29;;;;;;;8.10;3.72;;;;;;;6.67;64.81;99168.13;10511151;28;20052;-61
2023/11/12 17:20:31;;;;;;;9.20;2.83;;;;;;;6.64;64.57;99186.47;10491406;28;20404;-62
2023/11/12 17:25:33;;;;;;;5.25;2.85;;;;;;;6.47;64.89;99188.31;10488793;28;20672;-63
2023/11/12 17:30:36;;;;;;;9.05;4.22;;;;;;;6.32;65.25;99180.44;10510973;28;20403;-63
2023/11/12 17:35:38;;;;;;;10.35;4.53;;;;;;;6.32;65.16;99179.59;10504592;28;20135;-62
2023/11/12 17:40:41;;;;;;;11.25;4.80;;;;;;;6.25;65.42;99194.66;10502676;28;20052;-63
2023/11/12 17:45:43;;;;;;;9.55;3.97;;;;;;;6.20;65.77;99195.81;10508053;28;20071;-62
2023/11/12 17:50:46;;;;;;;10.50;3.95;;;;;;;6.31;65.69;99194.34;10505474;28;20130;-63
2023/11/12 17:55:48;;;;;;;12.38;5.43;;;;;;;6.40;65.40;99198.19;10489871;28;20101;-62
2023/11/12 18:00:51;;;;;;;9.82;4.38;;;;;;;6.39;65.20;99206.06;10489864;28;20043;-62
2023/11/12 18:05:54;;;;;;;9.02;4.20;;;;;;;6.17;65.34;99188.16;10500454;28;20162;-63
2023/11/12 18:10:57;;;;;;;9.25;4.30;;;;;;;6.01;65.70;99188.16;10510946;28;20056;-62
2023/11/12 18:15:59;;;;;;;8.38;3.65;;;;;;;6.08;65.54;99192.09;10505619;28;20136;-62
2023/11/12 18:21:01;;;;;;;9.55;4.05;;;;;;;6.07;65.79;99213.78;10510832;28;20434;-62
2023/11/12 18:26:03;;;;;;;7.68;3.15;;;;;;;6.26;65.65;99240.50;10506344;28;20055;-62
2023/11/12 18:31:06;;;;;;;10.60;4.47;;;;;;;6.38;65.20;99228.59;10508487;28;20040;-62
2023/11/12 18:36:10;;;;;;;9.02;3.50;;;;;;;6.40;65.34;99233.72;10511909;28;20132;-62
2023/11/12 18:41:14;;;;;;;4.80;2.92;;;;;;;6.44;65.13;99225.69;10511064;28;20526;-62
2023/11/12 18:46:16;;;;;;;10.77;3.28;;;;;;;6.46;65.32;99251.56;10509272;28;20071;-62
2023/11/12 18:51:18;;;;;;;6.30;3.63;;;;;;;6.51;65.28;99273.75;10512897;28;20113;-62
2023/11/12 18:56:20;;;;;;;16.33;6.60;;;;;;;6.56;65.28;99279.56;10495289;28;20794;-62
2023/11/12 19:01:23;;;;;;;7.22;4.32;;;;;;;6.61;65.17;99249.00;10513887;28;20051;-63
2023/11/12 19:06:34;;;;;;;7.00;4.03;;;;;;;6.61;65.23;99248.16;10508754;28;20039;-62
2023/11/12 19:11:36;;;;;;;7.30;3.75;;;;;;;6.54;65.11;99257.19;10510375;28;20044;-62
2023/11/12 19:16:38;;;;;;;9.23;4.10;;;;;;;6.34;65.27;99235.72;10509826;28;20079;-62
2023/11/12 19:21:40;;;;;;;8.05;3.60;;;;;;;6.31;65.38;99241.06;10510446;28;20044;-63
2023/11/12 19:26:42;;;;;;;6.20;2.72;;;;;;;6.34;65.37;99247.88;10490756;28;20063;-62
2023/11/12 19:31:44;;;;;;;6.95;3.20;;;;;;;6.41;65.06;99243.19;10510956;28;20051;-63
2023/11/12 19:36:46;;;;;;;7.82;3.15;;;;;;;6.33;65.17;99256.56;10510152;28;20040;-63
2023/11/12 19:41:48;;;;;;;4.80;3.00;;;;;;;6.37;65.03;99275.44;10508517;28;20039;-63
2023/11/12 19:46:50;;;;;;;6.38;2.80;;;;;;;6.39;65.18;99273.59;10504789;28;20052;-63
2023/11/12 19:51:53;;;;;;;5.20;3.00;;;;;;;6.47;65.01;99293.03;10494668;28;20052;-63
2023/11/12 19:56:55;;;;;;;5.57;2.90;;;;;;;6.51;65.02;99275.53;10508649;28;20040;-63
2023/11/12 20:01:57;;;;;;;5.32;3.30;;;;;;;6.27;65.10;99264.69;10507134;28;20097;-63
2023/11/12 20:06:59;;;;;;;6.32;3.20;;;;;;;6.03;65.33;99250.38;10504470;28;20040;-63
2023/11/12 20:12:01;;;;;;;5.60;2.90;;;;;;;5.96;65.56;99249.03;10510033;28;20040;-63
2023/11/12 20:17:08;;;;;;;5.97;3.25;;;;;;;5.88;65.59;99275.34;10480933;28;20047;-63
2023/11/12 20:22:17;;;;;;;6.20;3.10;;;;;;;5.86;65.76;99274.56;10495996;28;20040;-62
2023/11/12 20:27:19;;;;;;;6.25;3.00;;;;;;;5.96;65.68;99299.16;10517708;28;20044;-62
2023/11/12 20:32:21;;;;;;;6.00;3.00;;;;;;;5.89;65.54;99292.59;10517029;28;20127;-62
2023/11/12 20:37:24;;;;;;;6.50;3.42;;;;;;;5.93;65.73;99314.88;10501666;28;20119;-63
2023/11/12 20:42:27;;;;;;;7.82;4.55;;;;;;;6.07;65.64;99338.38;10498586;28;20468;-62
2023/11/12 20:47:28;;;;;;;5.00;3.55;;;;;;;6.08;65.48;99315.88;10500643;28;20064;-62
2023/11/12 20:52:33;;;;;;;7.75;3.50;;;;;;;6.06;65.73;99292.56;10516013;28;20074;-62
2023/11/12 20:57:35;;;;;;;10.15;3.92;;;;;;;6.23;65.65;99295.13;10500205;28;20582;-62
2023/11/12 21:02:37;;;;;;;8.02;3.30;;;;;;;6.30;65.58;99293.09;10513835;28;20055;-62
2023/11/12 21:07:39;;;;;;;6.60;3.75;;;;;;;6.33;65.42;99296.38;10517910;28;20133;-63
2023/11/12 21:12:41;;;;;;;5.80;3.22;;;;;;;6.34;65.41;99287.66;10515709;28;20082;-63
2023/11/12 21:17:45;;;;;;;8.93;3.83;;;;;;;6.38;65.33;99290.09;10517068;28;20159;-64
2023/11/12 21:22:47;;;;;;;7.63;3.75;;;;;;;6.25;65.34;99303.72;10498573;28;20137;-62
2023/11/12 21:27:49;;;;;;;7.28;3.72;;;;;;;6.16;65.47;99293.78;10516641;28;20579;-63
2023/11/12 21:32:52;;;;;;;6.53;4.03;;;;;;;6.06;65.78;99297.75;10515256;28;20067;-63
2023/11/12 21:37:54;;;;;;;6.93;3.40;;;;;;;6.16;65.70;99299.00;10515855;28;20089;-63
2023/11/12 21:42:57;;;;;;;7.90;3.80;;;;;;;6.22;65.50;99303.00;10516798;28;20127;-63
2023/11/12 21:48:00;;;;;;;6.10;3.35;;;;;;;6.20;65.46;99300.50;10515287;28;20199;-63
2023/11/12 21:53:02;;;;;;;7.40;3.92;;;;;;;6.18;65.77;99301.50;10513906;28;20055;-62
2023/11/12 21:58:04;;;;;;;5.65;3.10;;;;;;;6.20;65.56;99297.91;10516422;28;20059;-62
2023/11/12 22:03:06;;;;;;;5.43;3.13;;;;;;;6.25;65.59;99292.50;10510190;28;20094;-62
2023/11/12 22:08:09;;;;;;;7.05;3.22;;;;;;;6.20;65.35;99279.75;10515305;28;20044;-62
2023/11/12 22:13:11;;;;;;;7.13;3.40;;;;;;;6.08;65.69;99280.34;10495750;28;20052;-63
2023/11/12 22:18:13;;;;;;;6.80;3.75;;;;;;;6.09;65.77;99284.63;10497269;28;20480;-63
2023/11/12 22:23:16;;;;;;;5.60;3.22;;;;;;;6.03;66.01;99276.31;10511379;28;20050;-63
2023/11/12 22:28:18;;;;;;;6.90;4.15;;;;;;;6.15;65.84;99275.69;10505619;28;20475;-63
2023/11/12 22:33:20;;;;;;;7.25;3.50;;;;;;;6.24;65.70;99302.03;10508223;28;20700;-63
2023/11/12 22:38:22;;;;;;;8.95;4.05;;;;;;;6.19;65.81;99322.19;10507051;28;20052;-63
2023/11/12 22:43:24;;;;;;;7.72;3.28;;;;;;;6.13;65.77;99316.47;10503769;28;20659;-63
2023/11/12 22:48:27;;;;;;;7.82;3.83;;;;;;;6.02;65.99;99316.19;10504936;28;20051;-63
2023/11/12 22:53:29;;;;;;;6.07;3.92;;;;;;;6.00;66.24;99328.41;10505792;28;20071;-64
2023/11/12 22:58:31;;;;;;;8.05;4.18;;;;;;;6.05;66.10;99321.19;10507596;28;20060;-63
2023/11/12 23:03:33;;;;;;;8.57;3.20;;;;;;;6.07;66.21;99348.78;10487435;28;20412;-63
2023/11/12 23:08:35;;;;;;;6.60;3.15;;;;;;;6.16;66.00;99344.88;10506129;28;20511;-63
2023/11/12 23:13:37;;;;;;;5.80;3.20;;;;;;;6.17;65.89;99364.72;10507782;28;20044;-63
2023/11/12 23:18:39;;;;;;;8.02;3.80;;;;;;;6.27;65.77;99348.63;10503886;28;20048;-64
2023/11/12 23:23:41;;;;;;;6.05;3.47;;;;;;;6.32;65.69;99354.44;10507654;28;20113;-63
2023/11/12 23:28:43;;;;;;;5.68;3.28;;;;;;;6.26;65.68;99328.78;10513759;28;20079;-63
2023/11/12 23:33:45;;;;;;;9.65;4.03;;;;;;;6.17;65.86;99328.38;10510216;28;20052;-63
2023/11/12 23:38:47;;;;;;;8.32;4.03;;;;;;;6.25;65.84;99314.09;10513178;28;20082;-63
2023/11/12 23:43:49;;;;;;;5.43;3.47;;;;;;;6.20;65.57;99313.50;10512160;28;20044;-63